Banwell, United Kingdom
Current Conditions -  °F | °C
As of 10:50 PM on Friday 28 Nov 2014 (Local Time) from EGGD Reporting Station
Haze Haze  
Wind Chill: 42°   Ceiling: 300
Heat Index: 48°   Visibility: 2mi
Dew Point: 46°   Wind: 15mph
Humidity: 93%   Direction: 50°NE
Pressure: 29.65"   Gusts: NA
Location:  51.33°N, 2.87°W
Report Text: EGGD 282250Z 05013KT 3200 BR BKN003 SCT028 09/08 Q1004
Loading
Personal Weather Stations






























Interactive Weather Map New forecast layout! Learn more

10-Day Weather Forecast

Advertisements
Track Severe Weather on mobile